Time;durP1;ratioP1;P1;durP2;ratioP2;P2;SDS_P1;SDS_P2;PMS_P1;PMS_P2;Temp;Humidity;BMP_temperature;BMP_pressure;BME280_temperature;BME280_humidity;BME280_pressure;Samples;Min_cycle;Max_cycle;Signal;HPM_P1;HPM_P2
2022/09/26 00:01:25;;;;;;;8.80;4.95;;;11.80;99.90;;;;;;5056608;28;20040;-72
2022/09/26 00:03:56;;;;;;;7.28;4.75;;;11.90;99.90;;;;;;5055205;28;20037;-71
2022/09/26 00:06:23;;;;;;;7.53;4.95;;;12.00;99.90;;;;;;5056889;28;20044;-71
2022/09/26 00:08:50;;;;;;;10.48;5.20;;;11.90;99.90;;;;;;5055427;28;20490;-71
2022/09/26 00:11:29;;;;;;;8.27;4.63;;;11.90;99.90;;;;;;5055383;28;20440;-71
2022/09/26 00:13:59;;;;;;;7.65;4.85;;;11.90;99.90;;;;;;5039353;28;20052;-71
2022/09/26 00:16:26;;;;;;;8.23;4.63;;;11.90;99.90;;;;;;5055696;28;20037;-71
2022/09/26 00:18:54;;;;;;;7.00;4.55;;;11.90;99.90;;;;;;5056686;28;20045;-70
2022/09/26 00:21:21;;;;;;;9.68;4.90;;;11.90;99.90;;;;;;5056245;28;20044;-71
2022/09/26 00:23:47;;;;;;;6.97;4.22;;;11.90;99.90;;;;;;5056205;28;20033;-71
2022/09/26 00:26:16;;;;;;;14.90;5.47;;;11.90;99.90;;;;;;5054882;28;20078;-71
2022/09/26 00:28:44;;;;;;;6.43;4.53;;;11.80;99.90;;;;;;5055940;28;20598;-71
2022/09/26 00:31:13;;;;;;;6.10;4.22;;;11.80;99.90;;;;;;5071734;28;20048;-72
2022/09/26 00:33:39;;;;;;;7.80;4.55;;;11.60;99.90;;;;;;5056150;28;20496;-71
2022/09/26 00:36:05;;;;;;;10.10;4.65;;;11.50;99.90;;;;;;5056133;28;20059;-72
2022/09/26 00:38:32;;;;;;;7.03;4.55;;;11.50;99.90;;;;;;5056533;28;20033;-72
2022/09/26 00:40:59;;;;;;;9.05;5.05;;;11.40;99.90;;;;;;5055174;28;20480;-71
2022/09/26 00:43:32;;;;;;;8.80;4.63;;;11.40;99.90;;;;;;5056659;28;20044;-71
2022/09/26 00:46:22;;;;;;;11.43;5.07;;;11.40;99.90;;;;;;5056279;28;20073;-71
2022/09/26 00:49:03;;;;;;;7.63;5.13;;;11.40;99.90;;;;;;5056343;28;20037;-71
2022/09/26 00:51:29;;;;;;;10.23;5.35;;;11.40;99.90;;;;;;5056368;28;20485;-71
2022/09/26 00:53:56;;;;;;;7.60;4.72;;;11.50;99.90;;;;;;5056069;28;20103;-71
2022/09/26 00:56:29;;;;;;;7.70;5.00;;;11.60;99.90;;;;;;5055702;28;20086;-71
2022/09/26 00:59:17;;;;;;;8.18;5.07;;;11.40;99.90;;;;;;5054519;28;20065;-71
2022/09/26 01:01:43;;;;;;;9.57;5.70;;;11.40;99.90;;;;;;5056864;28;20048;-71
2022/09/26 01:04:11;;;;;;;8.40;4.60;;;11.50;99.90;;;;;;5056227;28;20037;-71
2022/09/26 01:06:37;;;;;;;8.52;5.47;;;11.40;99.90;;;;;;5057024;28;20043;-71
2022/09/26 01:09:07;;;;;;;11.02;5.03;;;11.40;99.90;;;;;;5054500;28;20119;-71
2022/09/26 01:11:37;;;;;;;10.07;5.22;;;11.50;99.90;;;;;;5056715;28;20562;-71
2022/09/26 01:14:06;;;;;;;9.55;5.55;;;11.60;99.90;;;;;;5055808;28;20048;-71
2022/09/26 01:16:33;;;;;;;8.77;5.25;;;11.60;99.90;;;;;;5055262;28;20040;-71
2022/09/26 01:19:03;;;;;;;9.88;5.90;;;11.70;99.90;;;;;;5054394;28;20075;-71
2022/09/26 01:22:03;;;;;;;9.48;5.40;;;11.70;99.90;;;;;;5055693;28;20044;-71
2022/09/26 01:24:53;;;;;;;11.52;5.20;;;11.70;99.90;;;;;;5056203;28;20044;-71
2022/09/26 01:27:56;;;;;;;8.40;5.13;;;11.60;99.90;;;;;;5056078;28;20036;-71
2022/09/26 01:30:26;;;;;;;7.40;4.82;;;11.60;99.90;;;;;;5054136;28;20068;-71
2022/09/26 01:33:16;;;;;;;7.63;4.63;;;11.60;99.90;;;;;;5056040;28;20142;-70
2022/09/26 01:36:33;;;;;;;9.65;5.00;;;11.70;99.90;;;;;;5054152;28;20076;-71
2022/09/26 01:39:23;;;;;;;8.30;4.90;;;11.70;99.90;;;;;;5049711;28;20128;-71
2022/09/26 01:41:57;;;;;;;8.57;5.25;;;11.70;99.90;;;;;;5054236;28;20037;-71
2022/09/26 01:44:53;;;;;;;9.75;5.00;;;11.60;99.90;;;;;;5054674;28;20057;-71
2022/09/26 01:47:26;;;;;;;8.05;4.95;;;11.60;99.90;;;;;;5054755;28;20041;-71
2022/09/26 01:50:08;;;;;;;8.65;4.90;;;11.70;99.90;;;;;;5055825;28;20041;-71
2022/09/26 01:53:10;;;;;;;8.85;4.90;;;11.60;99.90;;;;;;5053616;28;20207;-71
2022/09/26 01:55:47;;;;;;;9.90;5.03;;;11.60;99.90;;;;;;5047938;28;20041;-71
2022/09/26 01:58:30;;;;;;;8.65;5.35;;;11.60;99.90;;;;;;5053997;28;20095;-70
2022/09/26 02:01:00;;;;;;;9.70;4.90;;;11.60;99.90;;;;;;5054710;28;20048;-71
2022/09/26 02:03:29;;;;;;;7.80;5.30;;;11.70;99.90;;;;;;5055303;28;20033;-72
2022/09/26 02:06:01;;;;;;;9.40;5.63;;;11.70;99.90;;;;;;5054574;28;20092;-71
2022/09/26 02:08:36;;;;;;;12.07;5.32;;;11.70;99.90;;;;;;5054732;28;20040;-71
2022/09/26 02:11:23;;;;;;;8.05;4.95;;;11.60;99.90;;;;;;5055214;28;20496;-71
2022/09/26 02:14:26;;;;;;;10.73;5.50;;;11.70;99.90;;;;;;5054846;28;20140;-71
2022/09/26 02:16:56;;;;;;;10.15;5.38;;;11.60;99.90;;;;;;5043842;28;20039;-71
2022/09/26 02:19:28;;;;;;;10.75;5.55;;;11.50;99.90;;;;;;5051115;28;20118;-71
2022/09/26 02:21:55;;;;;;;9.75;4.88;;;11.50;99.90;;;;;;5032736;28;20041;-71
2022/09/26 02:24:22;;;;;;;8.23;4.88;;;11.40;99.90;;;;;;5049366;28;20077;-71
2022/09/26 02:26:49;;;;;;;8.00;4.82;;;11.30;99.90;;;;;;5035862;28;20035;-71
2022/09/26 02:29:16;;;;;;;8.23;4.65;;;11.30;99.90;;;;;;5035697;28;20041;-71
2022/09/26 02:32:11;;;;;;;8.50;5.03;;;11.30;99.90;;;;;;5033976;28;20441;-71
2022/09/26 02:34:40;;;;;;;6.30;4.40;;;11.10;99.90;;;;;;5034929;28;20049;-71
2022/09/26 02:37:07;;;;;;;7.80;4.90;;;11.20;99.90;;;;;;5034417;28;20103;-71
2022/09/26 02:39:35;;;;;;;8.07;5.20;;;11.20;99.90;;;;;;5033833;28;20428;-71
2022/09/26 02:42:14;;;;;;;7.38;4.45;;;11.20;99.90;;;;;;5034824;28;20065;-71
2022/09/26 02:45:10;;;;;;;8.65;5.20;;;11.20;99.90;;;;;;5034233;28;20041;-70
2022/09/26 02:48:11;;;;;;;8.07;4.88;;;11.20;99.90;;;;;;5015467;28;20029;-71
2022/09/26 02:50:53;;;;;;;8.95;5.22;;;11.00;99.90;;;;;;5051059;28;20103;-71
2022/09/26 02:53:40;;;;;;;8.88;4.72;;;10.90;99.90;;;;;;5034055;28;20512;-71
2022/09/26 02:56:22;;;;;;;7.47;4.85;;;10.70;99.90;;;;;;5050113;28;20087;-71
2022/09/26 02:58:48;;;;;;;10.32;4.75;;;10.70;99.90;;;;;;5033117;28;20049;-71
2022/09/26 03:01:26;;;;;;;11.75;4.63;;;10.90;99.90;;;;;;5049552;28;20045;-71
2022/09/26 03:04:33;;;;;;;7.95;4.88;;;10.90;99.90;;;;;;5033404;28;20041;-71
2022/09/26 03:07:03;;;;;;;8.05;4.88;;;10.90;99.90;;;;;;4993830;28;20046;-71
2022/09/26 03:09:30;;;;;;;6.97;4.75;;;10.90;99.90;;;;;;5027593;28;20040;-71
2022/09/26 03:11:59;;;;;;;8.82;5.03;;;10.90;99.90;;;;;;5033728;28;20426;-71
2022/09/26 03:14:28;;;;;;;6.43;4.32;;;10.80;99.90;;;;;;5033400;28;20397;-71
2022/09/26 03:16:53;;;;;;;10.68;5.47;;;10.70;99.90;;;;;;5033167;28;20571;-70
2022/09/26 03:19:37;;;;;;;10.77;5.53;;;10.80;99.90;;;;;;5033098;28;20037;-71
2022/09/26 03:22:03;;;;;;;8.90;5.50;;;10.90;99.90;;;;;;5034276;28;20030;-71
2022/09/26 03:24:29;;;;;;;11.05;6.00;;;10.90;99.90;;;;;;5035078;28;20405;-71
2022/09/26 03:26:55;;;;;;;11.38;5.82;;;10.80;99.90;;;;;;5035088;28;20044;-70
2022/09/26 03:29:22;;;;;;;8.65;5.15;;;10.70;99.90;;;;;;5033972;28;20030;-71
2022/09/26 03:31:49;;;;;;;9.77;5.30;;;10.70;99.90;;;;;;5033532;28;20120;-71
2022/09/26 03:34:16;;;;;;;9.38;5.20;;;10.70;99.90;;;;;;5034790;28;20064;-70
2022/09/26 03:36:42;;;;;;;8.10;4.85;;;10.70;99.90;;;;;;5034579;28;20519;-71
2022/09/26 03:39:10;;;;;;;10.05;5.30;;;10.70;99.90;;;;;;5033745;28;20045;-71
2022/09/26 03:41:35;;;;;;;14.80;5.68;;;10.70;99.90;;;;;;5032234;28;20040;-71
2022/09/26 03:44:02;;;;;;;12.52;5.85;;;10.60;99.90;;;;;;5032112;28;20042;-70
2022/09/26 03:46:28;;;;;;;8.27;5.20;;;10.50;99.90;;;;;;5033607;28;20099;-71
2022/09/26 03:48:53;;;;;;;14.02;5.57;;;10.60;99.90;;;;;;5033204;28;20080;-69
2022/09/26 03:51:19;;;;;;;9.10;5.45;;;10.70;99.90;;;;;;5038027;28;20060;-71
2022/09/26 03:53:49;;;;;;;10.65;5.53;;;10.70;99.90;;;;;;5036681;28;20191;-70
2022/09/26 03:56:17;;;;;;;11.13;5.80;;;10.70;99.90;;;;;;5038542;28;20120;-70
2022/09/26 03:58:44;;;;;;;10.45;5.20;;;10.80;99.90;;;;;;5037784;28;20180;-71
2022/09/26 04:01:18;;;;;;;10.43;5.32;;;10.80;99.90;;;;;;5039005;28;20038;-70
2022/09/26 04:03:45;;;;;;;12.75;6.63;;;10.80;99.90;;;;;;5056958;28;20029;-70
2022/09/26 04:06:12;;;;;;;7.57;5.10;;;10.80;99.90;;;;;;5056120;28;20488;-70
2022/09/26 04:08:39;;;;;;;8.65;5.07;;;10.80;99.90;;;;;;5057109;28;20041;-71
2022/09/26 04:11:08;;;;;;;10.18;5.53;;;10.80;99.90;;;;;;5056651;28;20082;-71
2022/09/26 04:13:35;;;;;;;8.25;5.00;;;10.70;99.90;;;;;;5057616;28;20053;-70
2022/09/26 04:16:04;;;;;;;9.32;5.53;;;10.60;99.90;;;;;;5055881;28;20056;-71
2022/09/26 04:18:31;;;;;;;9.15;4.57;;;10.60;99.90;;;;;;5055247;28;20045;-71
2022/09/26 04:20:58;;;;;;;8.32;4.57;;;10.60;99.90;;;;;;5055817;28;20029;-70
2022/09/26 04:23:28;;;;;;;9.20;5.75;;;10.60;99.90;;;;;;5057195;28;20036;-71
2022/09/26 04:25:56;;;;;;;8.50;5.13;;;10.70;99.90;;;;;;5046344;28;20124;-70
2022/09/26 04:28:23;;;;;;;8.95;4.72;;;10.70;99.90;;;;;;5056005;28;20052;-70
2022/09/26 04:30:48;;;;;;;11.00;5.53;;;10.60;99.90;;;;;;5056195;28;20041;-70
2022/09/26 04:33:14;;;;;;;10.27;5.07;;;10.60;99.90;;;;;;5071627;28;20573;-69
2022/09/26 04:35:40;;;;;;;8.25;4.65;;;10.50;99.90;;;;;;5056002;28;20045;-68
2022/09/26 04:38:07;;;;;;;6.18;4.00;;;10.60;99.90;;;;;;5056188;28;20049;-70
2022/09/26 04:40:33;;;;;;;9.05;4.72;;;10.50;99.90;;;;;;5055848;28;20506;-70
2022/09/26 04:42:58;;;;;;;6.30;4.10;;;10.40;99.90;;;;;;5056088;28;20167;-70
2022/09/26 04:45:24;;;;;;;8.95;4.65;;;10.40;99.90;;;;;;5055846;28;20055;-70
2022/09/26 04:47:50;;;;;;;8.35;4.57;;;;;;;;;;5054585;28;20075;-70
2022/09/26 04:50:16;;;;;;;6.93;4.10;;;10.40;99.90;;;;;;5055750;28;20056;-70
2022/09/26 04:52:42;;;;;;;8.50;4.13;;;10.40;99.90;;;;;;5055799;28;20040;-69
2022/09/26 04:55:08;;;;;;;8.35;4.53;;;10.40;99.90;;;;;;5055249;28;20049;-70
2022/09/26 04:57:36;;;;;;;7.03;4.63;;;10.40;99.90;;;;;;5053878;28;20526;-69
2022/09/26 05:00:03;;;;;;;7.18;4.38;;;10.40;99.90;;;;;;5054299;28;20088;-69
2022/09/26 05:02:29;;;;;;;7.05;4.10;;;10.40;99.90;;;;;;5054481;28;20040;-70
2022/09/26 05:04:58;;;;;;;7.85;5.00;;;10.50;99.90;;;;;;5055645;28;20047;-70
2022/09/26 05:07:26;;;;;;;8.50;4.57;;;10.60;99.90;;;;;;5055413;28;20037;-69
2022/09/26 05:09:52;;;;;;;6.72;4.30;;;10.60;99.90;;;;;;5053258;28;20048;-70
2022/09/26 05:12:18;;;;;;;8.85;4.82;;;10.50;99.90;;;;;;5054896;28;20171;-69
2022/09/26 05:14:44;;;;;;;7.32;4.88;;;10.50;99.90;;;;;;5053884;28;20401;-69
2022/09/26 05:17:10;;;;;;;7.40;4.53;;;10.40;99.90;;;;;;5053184;28;20102;-69
2022/09/26 05:19:36;;;;;;;8.68;4.78;;;10.20;99.90;;;;;;5052951;28;20097;-69
2022/09/26 05:22:03;;;;;;;6.43;4.35;;;10.20;99.90;;;;;;5051166;28;20045;-68
2022/09/26 05:27:14;;;;;;;7.15;4.18;;;10.10;99.90;;;;;;5051979;28;20047;-68
2022/09/26 05:29:39;;;;;;;6.40;3.47;;;10.20;99.90;;;;;;5051502;28;20389;-68
2022/09/26 05:32:05;;;;;;;6.40;3.72;;;10.10;99.90;;;;;;5053172;28;20075;-70
2022/09/26 05:34:31;;;;;;;7.57;3.50;;;10.20;99.90;;;;;;5053660;28;20136;-70
2022/09/26 05:36:58;;;;;;;9.10;4.15;;;10.20;99.90;;;;;;5052721;28;20051;-69
2022/09/26 05:42:08;;;;;;;6.47;3.90;;;10.20;99.90;;;;;;5053403;28;20094;-69
2022/09/26 05:44:33;;;;;;;6.10;3.70;;;10.20;99.90;;;;;;5053793;28;20477;-69
2022/09/26 05:47:00;;;;;;;6.28;3.92;;;10.20;99.90;;;;;;5051954;28;20037;-68
2022/09/26 05:49:26;;;;;;;7.35;3.63;;;10.10;99.90;;;;;;5051767;28;20044;-69
2022/09/26 05:51:52;;;;;;;6.90;3.88;;;10.10;99.90;;;;;;5052582;28;20049;-69
2022/09/26 05:54:18;;;;;;;4.82;3.40;;;10.00;99.90;;;;;;5049983;28;20132;-68
2022/09/26 05:56:44;;;;;;;6.05;3.53;;;10.10;99.90;;;;;;5050890;28;20047;-69
2022/09/26 05:59:12;;;;;;;5.75;3.92;;;10.10;99.90;;;;;;5051888;28;20044;-69
2022/09/26 06:01:38;;;;;;;6.07;3.67;;;10.00;99.90;;;;;;5066989;28;20460;-70
2022/09/26 06:04:04;;;;;;;6.05;3.85;;;10.00;99.90;;;;;;5050780;28;20029;-69
2022/09/26 06:06:29;;;;;;;5.60;3.17;;;10.20;99.90;;;;;;5052959;28;20079;-69
2022/09/26 06:08:55;;;;;;;7.03;3.70;;;10.20;99.90;;;;;;5052958;28;20115;-69
2022/09/26 06:11:23;;;;;;;5.43;3.80;;;10.10;99.90;;;;;;5052620;28;20043;-70
2022/09/26 06:13:49;;;;;;;4.72;3.33;;;10.20;99.90;;;;;;5053157;28;20373;-70
2022/09/26 06:16:17;;;;;;;10.15;3.50;;;10.30;99.90;;;;;;5053708;28;20120;-68
2022/09/26 06:18:44;;;;;;;6.28;3.47;;;10.60;99.90;;;;;;5053459;28;20036;-70
2022/09/26 06:21:11;;;;;;;5.00;3.40;;;10.60;99.90;;;;;;5052725;28;20049;-69
2022/09/26 06:23:39;;;;;;;7.25;3.60;;;10.60;99.90;;;;;;5049272;28;20382;-69
2022/09/26 06:26:13;;;;;;;8.60;3.75;;;10.70;99.90;;;;;;5038258;28;20041;-70
2022/09/26 06:28:39;;;;;;;6.75;3.50;;;10.60;99.90;;;;;;5030256;28;20053;-68
2022/09/26 06:31:13;;;;;;;4.70;3.28;;;10.70;99.90;;;;;;5030189;28;20573;-69
2022/09/26 06:33:40;;;;;;;6.90;3.50;;;10.70;99.90;;;;;;5031939;28;20045;-69
2022/09/26 06:36:08;;;;;;;5.97;3.35;;;10.80;99.90;;;;;;5031940;28;20041;-69
2022/09/26 06:38:34;;;;;;;5.68;3.67;;;10.60;99.90;;;;;;5033817;28;20040;-72
2022/09/26 06:41:01;;;;;;;6.03;3.40;;;10.50;99.90;;;;;;5032682;28;20413;-70
2022/09/26 06:43:26;;;;;;;6.60;3.53;;;10.70;99.90;;;;;;5033490;28;20037;-71
2022/09/26 06:45:52;;;;;;;7.50;3.13;;;10.60;99.90;;;;;;5046748;28;20120;-71
2022/09/26 06:48:21;;;;;;;6.43;3.00;;;11.00;99.90;;;;;;5050656;28;20037;-68
2022/09/26 06:50:51;;;;;;;5.43;3.45;;;11.00;99.90;;;;;;5050641;28;20052;-72
2022/09/26 06:53:17;;;;;;;5.80;3.42;;;11.10;99.90;;;;;;5052199;28;20400;-67
2022/09/26 06:55:43;;;;;;;6.15;3.20;;;11.10;99.90;;;;;;5050263;28;20037;-72
2022/09/26 06:58:09;;;;;;;5.72;3.90;;;11.40;99.90;;;;;;5051925;28;20535;-71
2022/09/26 07:00:34;;;;;;;7.68;3.92;;;11.80;99.90;;;;;;5051617;28;20048;-68
2022/09/26 07:03:01;;;;;;;4.60;3.13;;;12.00;99.90;;;;;;5053231;28;20037;-71
2022/09/26 07:05:27;;;;;;;9.02;3.40;;;11.90;99.90;;;;;;5053639;28;20045;-72
2022/09/26 07:07:53;;;;;;;4.35;2.92;;;11.80;99.90;;;;;;5053669;28;20090;-72
2022/09/26 07:10:20;;;;;;;6.43;3.50;;;11.80;99.90;;;;;;5053781;28;20052;-68
2022/09/26 07:12:47;;;;;;;7.20;3.03;;;11.90;99.90;;;;;;5069003;28;20048;-73
2022/09/26 07:15:18;;;;;;;5.05;3.03;;;11.90;99.90;;;;;;5053814;28;20124;-68
2022/09/26 07:17:46;;;;;;;4.93;3.03;;;11.90;99.90;;;;;;5052354;28;20507;-67
2022/09/26 07:20:18;;;;;;;3.97;2.65;;;11.90;99.90;;;;;;5053731;28;20056;-68
2022/09/26 07:22:44;;;;;;;5.80;3.08;;;11.90;99.90;;;;;;5053748;28;20413;-70
2022/09/26 07:25:10;;;;;;;6.70;3.10;;;11.80;99.90;;;;;;5054354;28;20045;-70
2022/09/26 07:27:37;;;;;;;5.53;3.33;;;11.80;99.90;;;;;;5063972;28;20037;-71
2022/09/26 07:30:05;;;;;;;6.38;3.28;;;11.80;99.90;;;;;;5037535;28;20037;-69
2022/09/26 07:32:31;;;;;;;9.55;3.20;;;12.10;99.90;;;;;;5037657;28;20385;-69
2022/09/26 07:35:03;;;;;;;5.10;3.10;;;12.70;99.90;;;;;;5037531;28;20043;-70
2022/09/26 07:37:30;;;;;;;7.80;3.42;;;13.20;99.90;;;;;;5037467;28;20566;-70
2022/09/26 07:39:56;;;;;;;5.63;3.20;;;13.40;99.90;;;;;;5036260;28;20037;-69
2022/09/26 07:42:21;;;;;;;5.63;3.20;;;13.70;99.90;;;;;;5037352;28;20041;-70
2022/09/26 07:44:47;;;;;;;4.05;2.72;;;13.60;99.90;;;;;;5037281;28;20045;-72
2022/09/26 07:50:11;;;;;;;5.53;2.78;;;13.70;99.90;;;;;;5036546;28;20393;-70
2022/09/26 07:52:38;;;;;;;4.30;2.53;;;14.00;99.90;;;;;;5036834;28;20038;-72
2022/09/26 07:55:06;;;;;;;4.72;2.85;;;14.40;99.90;;;;;;5035768;28;20495;-71
2022/09/26 07:57:34;;;;;;;4.70;2.55;;;14.40;99.90;;;;;;5033897;28;20505;-71
2022/09/26 08:00:00;;;;;;;3.95;2.20;;;14.70;99.90;;;;;;5033774;28;20068;-70
2022/09/26 08:02:34;;;;;;;4.68;2.75;;;14.80;99.90;;;;;;5034003;28;20385;-70
2022/09/26 08:05:04;;;;;;;5.70;2.30;;;15.00;99.90;;;;;;5034956;28;20053;-73
2022/09/26 08:07:31;;;;;;;4.00;2.88;;;15.00;99.90;;;;;;5035224;28;20037;-74
2022/09/26 08:09:57;;;;;;;3.42;2.20;;;15.10;99.90;;;;;;5036176;28;20041;-70
2022/09/26 08:12:25;;;;;;;11.07;3.65;;;15.10;99.90;;;;;;5034784;28;20099;-69
2022/09/26 08:14:51;;;;;;;4.70;2.53;;;15.00;99.90;;;;;;5033803;28;20049;-70
2022/09/26 08:17:21;;;;;;;3.92;2.88;;;;;;;;;;5034092;28;20041;-70
2022/09/26 08:19:47;;;;;;;5.13;3.03;;;14.60;99.90;;;;;;5032983;28;20049;-69
2022/09/26 08:22:13;;;;;;;7.50;2.92;;;;;;;;;;5031559;28;20033;-69
2022/09/26 08:24:39;;;;;;;4.22;2.38;;;15.00;99.90;;;;;;5032906;28;20125;-67
2022/09/26 08:27:05;;;;;;;3.28;2.63;;;15.40;99.90;;;;;;5034203;28;20128;-70
2022/09/26 08:29:31;;;;;;;3.80;2.33;;;15.70;99.90;;;;;;5034308;28;20498;-74
2022/09/26 08:31:59;;;;;;;2.72;1.92;;;16.00;99.90;;;;;;5032530;28;20076;-70
2022/09/26 08:34:25;;;;;;;4.53;2.30;;;16.10;99.90;;;;;;5034668;28;20045;-70
2022/09/26 08:36:54;;;;;;;4.07;2.30;;;16.20;99.90;;;;;;5042866;28;20068;-68
2022/09/26 08:39:20;;;;;;;5.15;1.92;;;16.30;99.90;;;;;;5054000;28;20516;-68
2022/09/26 08:41:47;;;;;;;4.85;2.10;;;;;;;;;;5055119;28;20037;-69
2022/09/26 08:44:51;;;;;;;5.25;2.47;;;16.60;99.90;;;;;;5052842;28;20045;-70
2022/09/26 08:47:42;;;;;;;5.68;2.00;;;16.80;99.90;;;;;;5053382;28;20029;-71
2022/09/26 08:50:31;;;;;;;3.30;2.20;;;17.10;99.90;;;;;;5052327;28;20048;-71
2022/09/26 08:53:00;;;;;;;3.95;2.15;;;16.70;99.90;;;;;;5053503;28;20067;-70
2022/09/26 08:55:30;;;;;;;3.08;1.95;;;17.00;99.90;;;;;;5053889;28;20045;-71
2022/09/26 08:58:02;;;;;;;2.72;1.90;;;17.00;99.90;;;;;;5053707;28;20036;-70
2022/09/26 09:00:32;;;;;;;3.55;1.80;;;16.90;99.90;;;;;;5053366;28;20123;-71
2022/09/26 09:03:27;;;;;;;2.97;2.00;;;17.00;99.90;;;;;;5053024;28;20071;-71
2022/09/26 09:06:06;;;;;;;6.32;2.05;;;16.20;99.90;;;;;;5029140;28;20034;-70
2022/09/26 09:08:37;;;;;;;4.32;2.28;;;16.20;99.90;;;;;;5033705;28;20041;-71
2022/09/26 09:11:20;;;;;;;3.17;2.03;;;17.10;99.90;;;;;;5032131;28;20033;-70
2022/09/26 09:14:03;;;;;;;3.55;1.65;;;17.30;99.90;;;;;;5050273;28;20521;-70
2022/09/26 09:16:52;;;;;;;2.95;1.92;;;17.20;99.90;;;;;;5035510;28;20132;-70
2022/09/26 09:19:42;;;;;;;5.10;1.55;;;16.70;99.90;;;;;;5033595;28;20099;-71
2022/09/26 09:22:17;;;;;;;2.97;1.85;;;16.50;99.90;;;;;;5041067;28;20037;-70
2022/09/26 09:24:53;;;;;;;2.22;1.20;;;16.50;99.90;;;;;;5035327;28;20029;-70
2022/09/26 09:27:37;;;;;;;2.72;1.52;;;16.60;99.90;;;;;;5034972;28;20042;-71
2022/09/26 09:30:23;;;;;;;4.07;1.40;;;16.10;99.90;;;;;;5034493;28;20037;-71
2022/09/26 09:32:59;;;;;;;2.83;1.30;;;16.50;99.90;;;;;;5032929;28;20037;-71
2022/09/26 09:35:38;;;;;;;2.55;1.38;;;16.30;99.90;;;;;;5034112;28;20049;-71
2022/09/26 09:38:06;;;;;;;3.40;1.65;;;15.50;99.90;;;;;;5035076;28;20025;-71
2022/09/26 09:40:37;;;;;;;2.70;1.33;;;15.60;99.90;;;;;;5034784;28;20076;-71
2022/09/26 09:43:09;;;;;;;2.47;1.40;;;15.60;99.90;;;;;;5034108;28;20120;-70
2022/09/26 09:45:42;;;;;;;4.63;1.60;;;15.80;99.90;;;;;;5032904;28;20095;-71
2022/09/26 09:48:14;;;;;;;3.35;1.52;;;15.60;99.90;;;;;;5031231;28;20504;-71
2022/09/26 09:50:51;;;;;;;2.65;1.23;;;16.00;99.90;;;;;;5032756;28;20045;-71
2022/09/26 09:53:36;;;;;;;1.58;1.17;;;17.00;99.90;;;;;;5030994;28;20191;-71
2022/09/26 09:56:26;;;;;;;3.58;1.27;;;17.70;99.90;;;;;;5031305;28;20526;-71
2022/09/26 09:59:04;;;;;;;8.10;1.40;;;17.50;99.90;;;;;;5031599;28;20512;-71
2022/09/26 10:01:40;;;;;;;3.40;1.30;;;17.60;99.90;;;;;;5031253;28;20458;-71
2022/09/26 10:04:38;;;;;;;2.72;1.70;;;17.90;99.90;;;;;;5032537;28;20052;-70
2022/09/26 10:07:04;;;;;;;3.58;1.65;;;18.00;99.90;;;;;;5047864;28;20071;-71
2022/09/26 10:09:42;;;;;;;2.03;1.17;;;18.30;99.90;;;;;;5031263;28;20037;-71
2022/09/26 10:12:16;;;;;;;1.20;0.90;;;18.50;99.90;;;;;;5032187;28;20052;-71
2022/09/26 10:15:01;;;;;;;2.17;1.48;;;18.60;99.90;;;;;;5032409;28;20506;-71
2022/09/26 10:17:28;;;;;;;1.40;0.93;;;18.70;99.90;;;;;;5032464;28;20128;-71
2022/09/26 10:19:54;;;;;;;3.00;1.20;;;18.50;99.90;;;;;;5032758;28;20037;-71
2022/09/26 10:22:36;;;;;;;1.15;0.82;;;18.60;99.90;;;;;;5033376;28;20083;-71
2022/09/26 10:25:14;;;;;;;3.63;1.20;;;18.70;99.90;;;;;;5032074;28;20045;-71
2022/09/26 10:27:47;;;;;;;1.50;1.00;;;19.00;99.90;;;;;;5031936;28;20489;-71
2022/09/26 10:30:19;;;;;;;2.38;0.85;;;18.50;99.90;;;;;;5044593;28;20553;-71
2022/09/26 10:32:52;;;;;;;1.38;0.80;;;18.00;99.90;;;;;;5031030;28;20481;-71
2022/09/26 10:35:22;;;;;;;1.90;1.08;;;18.00;99.90;;;;;;5036899;28;20043;-70
2022/09/26 10:37:56;;;;;;;;;;;18.20;99.90;;;;;;5034110;28;20056;-70
2022/09/26 10:40:51;;;;;;;1.50;0.93;;;18.20;99.90;;;;;;5031279;28;19913;-70
2022/09/26 10:43:21;;;;;;;5.15;2.33;;;17.50;99.90;;;;;;5024075;28;20094;-70
2022/09/26 10:45:53;;;;;;;4.13;1.40;;;17.30;99.90;;;;;;5033828;28;20069;-70
2022/09/26 10:48:26;;;;;;;34.45;13.05;;;17.10;99.90;;;;;;5032054;28;20067;-70
2022/09/26 10:50:59;;;;;;;4.53;1.30;;;17.00;99.90;;;;;;5032243;28;20034;-70
2022/09/26 10:53:33;;;;;;;5.57;4.07;;;17.00;99.90;;;;;;5033143;28;20523;-69
2022/09/26 10:56:06;;;;;;;6.20;4.10;;;17.20;99.90;;;;;;5031312;28;20592;-70
2022/09/26 10:58:40;;;;;;;1.73;1.05;;;17.20;99.90;;;;;;5036787;28;20051;-70
2022/09/26 11:01:17;;;;;;;2.63;1.13;;;17.20;99.90;;;;;;5040073;28;20393;-70
2022/09/26 11:03:44;;;;;;;2.40;1.02;;;17.60;99.90;;;;;;5040144;28;20037;-70
2022/09/26 11:06:33;;;;;;;3.25;1.08;;;16.70;99.90;;;;;;5055063;28;20077;-69
2022/09/26 11:09:02;;;;;;;3.88;1.25;;;16.30;99.90;;;;;;5038272;28;20045;-69
2022/09/26 11:11:32;;;;;;;1.13;0.65;;;17.00;99.90;;;;;;5053318;28;20083;-70
2022/09/26 11:14:02;;;;;;;;;;;17.00;99.70;;;;;;5038407;28;20584;-70
2022/09/26 11:16:47;;;;;;;1.33;0.90;;;17.30;99.90;;;;;;5037945;28;20368;-69
2022/09/26 11:19:20;;;;;;;0.82;0.60;;;17.40;99.90;;;;;;5038390;28;20041;-70
2022/09/26 11:21:55;;;;;;;2.72;0.88;;;17.10;99.90;;;;;;5039069;28;20099;-69
2022/09/26 11:24:41;;;;;;;8.43;5.38;;;16.90;99.90;;;;;;5038232;28;20057;-69
2022/09/26 11:27:30;;;;;;;3.10;1.85;;;17.30;99.90;;;;;;5038360;28;20497;-69
2022/09/26 11:30:19;;;;;;;6.57;3.60;;;17.40;99.90;;;;;;5039128;28;20049;-70
2022/09/26 11:32:51;;;;;;;3.20;1.17;;;17.30;99.90;;;;;;5053385;28;20053;-69
2022/09/26 11:35:28;;;;;;;4.55;2.13;;;17.40;99.10;;;;;;5037702;28;20130;-69
2022/09/26 11:38:04;;;;;;;1.65;1.13;;;18.10;99.90;;;;;;5038326;28;20041;-69
2022/09/26 11:40:48;;;;;;;2.45;1.15;;;18.50;99.90;;;;;;5037848;28;20579;-70
2022/09/26 11:43:23;;;;;;;1.95;0.73;;;18.00;97.70;;;;;;5037999;28;20497;-70
2022/09/26 11:46:13;;;;;;;1.67;0.93;;;17.40;99.30;;;;;;5037868;28;20514;-70
2022/09/26 11:48:59;;;;;;;5.03;2.90;;;17.20;99.90;;;;;;5037868;28;20094;-69
2022/09/26 11:51:41;;;;;;;2.58;0.75;;;17.20;99.90;;;;;;5053227;28;20057;-70
2022/09/26 11:54:26;;;;;;;;;;;16.70;99.60;;;;;;5039726;28;20064;-70
2022/09/26 11:57:10;;;;;;;1.10;0.80;;;16.80;99.90;;;;;;5039491;28;19963;-70
2022/09/26 11:59:56;;;;;;;4.05;1.48;;;16.80;99.90;;;;;;5038088;28;20056;-70
2022/09/26 12:02:39;;;;;;;1.48;0.90;;;16.90;99.90;;;;;;5037869;28;20131;-69
2022/09/26 12:05:32;;;;;;;1.88;1.00;;;16.90;99.80;;;;;;5037551;28;20091;-69
2022/09/26 12:08:13;;;;;;;1.58;0.90;;;16.60;99.50;;;;;;5037166;28;20072;-70
2022/09/26 12:10:45;;;;;;;0.70;0.50;;;16.60;99.70;;;;;;5035804;28;20152;-69
2022/09/26 12:13:33;;;;;;;2.13;1.02;;;17.10;99.50;;;;;;5034971;28;20041;-69
2022/09/26 12:16:20;;;;;;;2.55;1.00;;;17.00;99.30;;;;;;5035214;28;20407;-69
2022/09/26 12:18:56;;;;;;;1.63;0.85;;;17.10;98.90;;;;;;5050164;28;20053;-69
2022/09/26 12:22:27;;;;;;;1.95;1.15;;;16.60;98.40;;;;;;5034502;28;20467;-70
2022/09/26 12:24:48;;;;;;;4.38;0.82;;;16.50;99.40;;;;;;5034942;28;20041;-69
2022/09/26 12:27:26;;;;;;;1.65;0.90;;;16.60;99.90;;;;;;5036161;28;20095;-69
2022/09/26 12:30:20;;;;;;;3.90;1.05;;;16.70;99.40;;;;;;5035890;28;20037;-69
2022/09/26 12:33:05;;;;;;;1.10;0.93;;;16.80;99.50;;;;;;5049736;28;20183;-69
2022/09/26 12:35:57;;;;;;;1.88;1.02;;;16.90;99.70;;;;;;5049377;28;20037;-69
2022/09/26 12:38:35;;;;;;;3.15;0.80;;;17.20;99.90;;;;;;5036065;28;20460;-69
2022/09/26 12:41:38;;;;;;;1.40;0.70;;;17.00;98.70;;;;;;5055021;28;20559;-69
2022/09/26 12:44:04;;;;;;;1.60;0.90;;;16.80;99.30;;;;;;5056159;28;20033;-69
2022/09/26 12:47:05;;;;;;;6.45;1.20;;;16.70;99.90;;;;;;5056166;28;20453;-69
2022/09/26 12:50:13;;;;;;;1.30;0.80;;;16.60;99.90;;;;;;5054513;28;20051;-69
2022/09/26 12:53:03;;;;;;;1.50;0.70;;;16.70;99.90;;;;;;5042039;28;20048;-69
2022/09/26 12:55:38;;;;;;;1.48;0.55;;;16.70;99.90;;;;;;5054645;28;20413;-69
2022/09/26 12:58:30;;;;;;;1.98;0.73;;;16.40;99.30;;;;;;5055904;28;20516;-69
2022/09/26 13:01:01;;;;;;;1.45;1.00;;;16.50;99.90;;;;;;5054134;28;20048;-69
2022/09/26 13:03:42;;;;;;;1.15;0.77;;;16.30;99.90;;;;;;5055853;28;20048;-68
2022/09/26 13:06:35;;;;;;;1.33;0.63;;;16.30;99.90;;;;;;5052858;28;20029;-69
2022/09/26 13:09:34;;;;;;;1.70;0.80;;;16.50;99.90;;;;;;5054129;28;20037;-69
2022/09/26 13:12:29;;;;;;;2.05;0.90;;;16.80;99.90;;;;;;5055742;28;20029;-69
2022/09/26 13:15:09;;;;;;;1.45;0.88;;;17.00;99.90;;;;;;5054550;28;20045;-69
2022/09/26 13:17:40;;;;;;;1.27;0.60;;;16.80;98.10;;;;;;5055639;28;20047;-69
2022/09/26 13:20:16;;;;;;;;;;;16.70;99.80;;;;;;5056073;28;20099;-69
2022/09/26 13:22:49;;;;;;;4.43;0.98;;;16.80;99.90;;;;;;5053885;28;20364;-69
2022/09/26 13:25:24;;;;;;;1.02;0.73;;;16.80;99.20;;;;;;5054212;28;20041;-69
2022/09/26 13:27:57;;;;;;;3.00;0.75;;;17.10;99.90;;;;;;5055304;28;20112;-69
2022/09/26 13:30:34;;;;;;;2.80;0.77;;;17.20;99.90;;;;;;5055349;28;20041;-69